createdAt,value
2023-03-13T00:01:51.810Z,99553.20
2023-03-13T00:05:14.140Z,99549.55
2023-03-13T00:08:36.325Z,99549.35
2023-03-13T00:11:58.154Z,99545.52
2023-03-13T00:15:19.838Z,99543.08
2023-03-13T00:18:47.217Z,99539.59
2023-03-13T00:22:08.997Z,99537.16
2023-03-13T00:25:31.172Z,99537.67
2023-03-13T00:28:53.659Z,99536.80
2023-03-13T00:32:15.767Z,99537.33
2023-03-13T00:35:37.811Z,99539.58
2023-03-13T00:39:01.421Z,99542.17
2023-03-13T00:42:23.179Z,99541.48
2023-03-13T00:45:44.928Z,99543.05
2023-03-13T00:49:07.059Z,99529.01
2023-03-13T00:52:28.710Z,99530.77
2023-03-13T00:55:53.530Z,99531.65
2023-03-13T00:59:15.794Z,99528.54
2023-03-13T01:02:42.491Z,99529.76
2023-03-13T01:06:06.929Z,99517.81
2023-03-13T01:09:28.665Z,99514.02
2023-03-13T01:12:50.400Z,99506.05
2023-03-13T01:16:18.627Z,99498.45
2023-03-13T01:19:40.382Z,99490.16
2023-03-13T01:23:03.511Z,99485.65
2023-03-13T01:26:26.180Z,99489.14
2023-03-13T01:29:48.777Z,99490.55
2023-03-13T01:33:10.478Z,99482.92
2023-03-13T01:36:32.344Z,99480.67
2023-03-13T01:39:54.136Z,99476.88
2023-03-13T01:43:27.928Z,99473.94
2023-03-13T01:46:52.635Z,99461.61
2023-03-13T01:50:20.291Z,99459.02
2023-03-13T01:54:18.639Z,99451.38
2023-03-13T01:57:43.344Z,99444.78
2023-03-13T02:01:05.974Z,99448.06
2023-03-13T02:04:31.505Z,99449.80
2023-03-13T02:08:24.270Z,99450.84
2023-03-13T02:12:05.181Z,99445.64
2023-03-13T02:15:27.790Z,99440.92
2023-03-13T02:18:49.665Z,99439.31
2023-03-13T02:22:29.909Z,99434.61
2023-03-13T02:25:53.551Z,99435.98
2023-03-13T02:29:18.736Z,99436.15
2023-03-13T02:32:41.184Z,99440.80
2023-03-13T02:36:03.556Z,99439.56
2023-03-13T02:39:26.052Z,99439.91
2023-03-13T02:42:48.800Z,99438.36
2023-03-13T02:46:17.525Z,99433.67
2023-03-13T02:49:40.985Z,99434.38
2023-03-13T02:53:05.890Z,99434.21
2023-03-13T02:56:30.073Z,99431.08
2023-03-13T02:59:51.931Z,99432.63
2023-03-13T03:03:13.945Z,99433.31
2023-03-13T03:06:35.621Z,99436.79
2023-03-13T03:09:58.187Z,99439.05
2023-03-13T03:13:19.891Z,99443.20
2023-03-13T03:16:41.837Z,99439.03
2023-03-13T03:20:07.964Z,99437.48
2023-03-13T03:23:29.679Z,99433.67
2023-03-13T03:26:51.433Z,99428.47
2023-03-13T03:30:19.260Z,99433.14
2023-03-13T03:33:42.116Z,99431.42
2023-03-13T03:37:05.660Z,99437.13
2023-03-13T03:40:28.231Z,99427.27
2023-03-13T03:43:50.452Z,99424.98
2023-03-13T03:47:14.841Z,99426.39
2023-03-13T03:50:39.559Z,99432.61
2023-03-13T03:54:01.400Z,99426.00
2023-03-13T03:57:25.018Z,99417.68
2023-03-13T04:00:47.802Z,99413.83
2023-03-13T04:04:09.711Z,99411.48
2023-03-13T04:07:33.415Z,99405.02
2023-03-13T04:10:55.494Z,99402.27
2023-03-13T04:14:18.643Z,99399.85
2023-03-13T04:17:40.572Z,99401.08
2023-03-13T04:21:06.028Z,99394.48
2023-03-13T04:24:44.639Z,99386.86
2023-03-13T04:28:06.361Z,99383.58
2023-03-13T04:31:33.823Z,99374.39
2023-03-13T04:35:11.270Z,99373.17
2023-03-13T04:38:51.593Z,99360.01
2023-03-13T04:42:32.269Z,99357.75
2023-03-13T04:46:05.939Z,99353.75
2023-03-13T04:49:53.636Z,99354.94
2023-03-13T04:53:39.332Z,99356.33
2023-03-13T04:57:13.847Z,99351.30
2023-03-13T05:00:57.086Z,99347.66
2023-03-13T05:04:36.830Z,99345.23
2023-03-13T05:08:21.781Z,99337.09
2023-03-13T05:11:58.274Z,99337.27
2023-03-13T05:15:38.832Z,99335.73
2023-03-13T05:19:26.867Z,99330.02
2023-03-13T05:23:11.621Z,99327.61
2023-03-13T05:26:56.087Z,99333.34
2023-03-13T05:30:26.926Z,99340.81
2023-03-13T05:34:07.448Z,99336.30
2023-03-13T05:37:47.479Z,99332.33
2023-03-13T05:41:44.656Z,99330.44
2023-03-13T05:45:12.734Z,99336.37
2023-03-13T05:48:58.414Z,99341.42
2023-03-13T05:52:39.741Z,99346.45
2023-03-13T05:56:01.624Z,99342.13
2023-03-13T05:59:41.971Z,99340.73
2023-03-13T06:03:22.395Z,99340.03
2023-03-13T06:06:46.750Z,99333.80
2023-03-13T06:10:11.185Z,99330.68
2023-03-13T06:13:34.384Z,99329.15
2023-03-13T06:17:02.812Z,99327.62
2023-03-13T06:20:24.549Z,99323.31
2023-03-13T06:23:48.992Z,99324.05
2023-03-13T06:27:11.219Z,99322.66
2023-03-13T06:30:32.931Z,99321.65
2023-03-13T06:33:55.188Z,99320.27
2023-03-13T06:37:16.900Z,99321.00
2023-03-13T06:40:38.594Z,99320.14
2023-03-13T06:44:00.291Z,99322.08
2023-03-13T06:47:21.990Z,99327.81
2023-03-13T06:50:44.114Z,99324.73
2023-03-13T06:54:06.026Z,99316.08
2023-03-13T06:57:27.882Z,99314.00
2023-03-13T07:00:49.584Z,99311.04
2023-03-13T07:04:13.047Z,99311.23
2023-03-13T07:07:37.283Z,99307.46
2023-03-13T07:11:01.213Z,99304.23
2023-03-13T07:14:22.864Z,99301.15
2023-03-13T07:17:44.721Z,99304.17
2023-03-13T07:21:06.526Z,99300.74
2023-03-13T07:24:28.252Z,99300.06
2023-03-13T07:27:52.538Z,99298.88
2023-03-13T07:31:22.027Z,99299.44
2023-03-13T07:34:46.862Z,99294.60
2023-03-13T07:38:08.538Z,99291.50
2023-03-13T07:41:30.257Z,99282.86
2023-03-13T07:44:53.341Z,99276.52
2023-03-13T07:48:14.974Z,99270.89
2023-03-13T07:51:43.661Z,99274.42
2023-03-13T07:55:06.551Z,99271.52
2023-03-13T07:58:32.412Z,99275.40
2023-03-13T08:01:54.384Z,99272.15
2023-03-13T08:05:16.195Z,99271.91
2023-03-13T08:08:39.202Z,99262.42
2023-03-13T08:12:00.857Z,99255.19
2023-03-13T08:15:26.144Z,99256.64
2023-03-13T08:18:50.496Z,99253.55
2023-03-13T08:22:12.210Z,99257.41
2023-03-13T08:25:33.942Z,99259.88
2023-03-13T08:29:06.930Z,99263.02
2023-03-13T08:32:28.943Z,99261.13
2023-03-13T08:35:50.754Z,99262.18
2023-03-13T08:39:14.591Z,99252.98
2023-03-13T08:42:37.565Z,99254.74
2023-03-13T08:45:59.340Z,99247.80
2023-03-13T08:49:21.087Z,99241.20
2023-03-13T08:52:44.790Z,99234.44
2023-03-13T08:56:09.717Z,99223.33
2023-03-13T08:59:31.463Z,99215.02
2023-03-13T09:02:53.217Z,99204.27
2023-03-13T09:06:15.061Z,99192.80
2023-03-13T09:09:36.999Z,99194.63
2023-03-13T09:12:58.827Z,99190.83
2023-03-13T09:16:22.713Z,99180.02
2023-03-13T09:19:59.181Z,99167.00
2023-03-13T09:23:22.348Z,99161.37
2023-03-13T09:26:58.557Z,99156.73
2023-03-13T09:30:22.487Z,99154.81
2023-03-13T09:33:45.234Z,99149.35
2023-03-13T09:37:07.268Z,99148.83
2023-03-13T09:40:29.073Z,99146.81
2023-03-13T09:44:13.141Z,99144.63
2023-03-13T09:47:51.023Z,99142.40
2023-03-13T09:51:21.923Z,99138.39
2023-03-13T09:54:59.746Z,99133.54
2023-03-13T09:58:24.604Z,99125.21
2023-03-13T10:01:47.835Z,99115.22
2023-03-13T10:05:09.803Z,99111.71
2023-03-13T10:08:33.819Z,99108.11
2023-03-13T10:12:18.991Z,99106.06
2023-03-13T10:15:56.139Z,99106.61
2023-03-13T10:19:22.287Z,99107.35
2023-03-13T10:22:46.387Z,99104.67
2023-03-13T10:26:17.854Z,99105.34
2023-03-13T10:29:40.147Z,99108.95
2023-03-13T10:33:17.050Z,99104.70
2023-03-13T10:36:50.135Z,99098.45
2023-03-13T10:40:25.470Z,99094.36
2023-03-13T10:43:52.800Z,99084.70
2023-03-13T10:47:15.157Z,99078.70
2023-03-13T10:50:37.146Z,99071.88
2023-03-13T10:53:58.863Z,99065.65
2023-03-13T10:57:36.452Z,99059.59
2023-03-13T11:01:17.188Z,99049.58
2023-03-13T11:04:39.289Z,99039.81
2023-03-13T11:08:22.731Z,99040.83
2023-03-13T11:12:10.470Z,99035.17
2023-03-13T11:15:46.550Z,99024.50
2023-03-13T11:19:29.961Z,99024.71
2023-03-13T11:23:00.438Z,99019.55
2023-03-13T11:27:05.136Z,99007.30
2023-03-13T11:34:46.408Z,98970.35
2023-03-13T11:38:22.238Z,98962.38
2023-03-13T11:41:44.003Z,98953.02
2023-03-13T11:45:14.423Z,98952.24
2023-03-13T11:48:51.821Z,98941.33
2023-03-13T11:52:24.768Z,98934.86
2023-03-13T11:55:51.897Z,98936.15
2023-03-13T11:59:22.250Z,98931.08
2023-03-13T12:03:04.956Z,98933.16
2023-03-13T12:06:31.883Z,98927.63
2023-03-13T12:10:00.561Z,98925.63
2023-03-13T12:13:35.951Z,98924.46
2023-03-13T12:17:01.380Z,98924.18
2023-03-13T12:20:27.491Z,98922.95
2023-03-13T12:23:56.120Z,98921.61
2023-03-13T12:27:51.903Z,98911.92
2023-03-13T12:31:37.116Z,98906.89
2023-03-13T12:35:20.438Z,98903.30
2023-03-13T12:38:58.625Z,98896.45
2023-03-13T12:42:40.096Z,98895.85
2023-03-13T12:46:01.932Z,98895.25
2023-03-13T12:49:32.603Z,98889.02
2023-03-13T12:53:28.064Z,98884.45
2023-03-13T12:56:56.025Z,98881.94
2023-03-13T13:00:22.116Z,98879.80
2023-03-13T13:03:57.514Z,98871.52
2023-03-13T13:07:29.618Z,98869.42
2023-03-13T13:10:51.326Z,98869.38
2023-03-13T13:14:19.246Z,98864.10
2023-03-13T13:18:14.761Z,98857.75
2023-03-13T13:21:38.281Z,98848.41
2023-03-13T13:25:06.195Z,98848.13
2023-03-13T13:28:37.497Z,98842.66
2023-03-13T13:32:01.629Z,98840.31
2023-03-13T13:35:34.830Z,98830.63
2023-03-13T13:38:59.343Z,98829.85
2023-03-13T13:42:33.031Z,98827.38
2023-03-13T13:46:16.350Z,98827.65
2023-03-13T13:49:53.096Z,98823.92
2023-03-13T13:53:31.542Z,98821.19
2023-03-13T13:57:02.687Z,98818.65
2023-03-13T14:00:29.733Z,98820.94
2023-03-13T14:03:54.842Z,98817.09
2023-03-13T14:07:32.970Z,98800.94
2023-03-13T14:11:05.131Z,98795.09
2023-03-13T14:14:26.910Z,98795.48
2023-03-13T14:18:00.608Z,98784.19
2023-03-13T14:21:25.072Z,98780.91
2023-03-13T14:24:57.704Z,98773.96
2023-03-13T14:28:25.481Z,98761.99
2023-03-13T14:31:54.894Z,98755.26
2023-03-13T14:35:22.045Z,98757.05
2023-03-13T14:39:01.586Z,98742.13
2023-03-13T14:42:23.503Z,98723.73
2023-03-13T14:45:45.697Z,98719.60
2023-03-13T14:49:14.990Z,98717.88
2023-03-13T14:52:39.946Z,98711.30
2023-03-13T14:56:19.168Z,98702.09
2023-03-13T14:59:43.928Z,98700.71
2023-03-13T15:03:19.073Z,98706.80
2023-03-13T15:06:41.006Z,98711.98
2023-03-13T15:10:17.444Z,98705.53
2023-03-13T15:13:41.970Z,98703.59
2023-03-13T15:17:04.476Z,98703.92
2023-03-13T15:20:26.168Z,98707.91
2023-03-13T15:23:59.184Z,98701.63
2023-03-13T15:27:23.643Z,98693.79
2023-03-13T15:30:47.397Z,98689.30
2023-03-13T15:34:13.309Z,98690.35
2023-03-13T15:37:37.116Z,98692.49
2023-03-13T15:40:58.944Z,98684.86
2023-03-13T15:44:20.670Z,98682.92
2023-03-13T15:47:42.435Z,98680.85
2023-03-13T15:54:40.274Z,98686.23
2023-03-13T15:58:03.032Z,98690.59
2023-03-13T16:01:25.107Z,98690.02
2023-03-13T16:04:47.247Z,98684.80
2023-03-13T16:08:36.803Z,98690.20
2023-03-13T16:11:59.006Z,98689.64
2023-03-13T16:15:21.451Z,98681.14
2023-03-13T16:18:43.217Z,98681.02
2023-03-13T16:22:05.091Z,98679.71
2023-03-13T16:25:26.955Z,98681.36
2023-03-13T16:28:49.285Z,98686.00
2023-03-13T16:32:15.791Z,98686.45
2023-03-13T16:35:38.600Z,98686.43
2023-03-13T16:39:05.810Z,98684.13
2023-03-13T16:42:27.576Z,98691.08
2023-03-13T16:45:49.379Z,98689.63
2023-03-13T16:49:14.937Z,98687.50
2023-03-13T16:52:37.182Z,98686.27
2023-03-13T16:55:59.332Z,98687.63
2023-03-13T16:59:23.326Z,98682.55
2023-03-13T17:02:45.814Z,98689.52
2023-03-13T17:06:13.990Z,98698.74
2023-03-13T17:09:35.802Z,98698.91
2023-03-13T17:12:57.792Z,98698.55
2023-03-13T17:16:25.041Z,98701.66
2023-03-13T17:19:48.223Z,98703.05
2023-03-13T17:23:10.307Z,98698.33
2023-03-13T17:26:37.131Z,98700.08
2023-03-13T17:29:59.133Z,98699.90
2023-03-13T17:33:21.138Z,98697.60
2023-03-13T17:36:43.669Z,98694.27
2023-03-13T17:40:16.164Z,98693.21
2023-03-13T17:43:40.808Z,98695.48
2023-03-13T17:47:02.720Z,98697.38
2023-03-13T17:50:27.338Z,98691.41
2023-03-13T17:53:50.441Z,98690.70
2023-03-13T17:57:15.999Z,98686.88
2023-03-13T18:00:38.036Z,98682.29
2023-03-13T18:04:00.751Z,98683.69
2023-03-13T18:07:27.807Z,98681.94
2023-03-13T18:10:49.654Z,98678.25
2023-03-13T18:14:11.905Z,98679.63
2023-03-13T18:17:33.813Z,98674.71
2023-03-13T18:20:55.556Z,98675.39
2023-03-13T18:24:18.054Z,98672.23
2023-03-13T18:27:40.302Z,98678.34
2023-03-13T18:31:02.238Z,98672.89
2023-03-13T18:34:25.091Z,98674.80
2023-03-13T18:37:47.882Z,98672.85
2023-03-13T18:41:11.990Z,98680.86
2023-03-13T18:44:34.231Z,98670.55
2023-03-13T18:47:56.336Z,98669.52
2023-03-13T18:51:19.637Z,98667.03
2023-03-13T18:54:41.673Z,98668.76
2023-03-13T18:58:03.452Z,98662.11
2023-03-13T19:01:29.574Z,98651.27
2023-03-13T19:04:52.033Z,98651.77
2023-03-13T19:08:14.016Z,98657.17
2023-03-13T19:11:35.848Z,98649.67
2023-03-13T19:14:57.835Z,98647.73
2023-03-13T19:18:19.662Z,98634.31
2023-03-13T19:21:41.548Z,98643.90
2023-03-13T19:25:04.115Z,98641.77
2023-03-13T19:28:26.000Z,98644.01
2023-03-13T19:31:47.831Z,98646.44
2023-03-13T19:35:09.851Z,98651.30
2023-03-13T19:38:31.632Z,98658.46
2023-03-13T19:41:53.957Z,98665.43
2023-03-13T19:45:20.533Z,98660.89
2023-03-13T19:48:42.386Z,98659.66
2023-03-13T19:52:04.264Z,98657.20
2023-03-13T19:55:26.155Z,98657.04
2023-03-13T19:58:50.015Z,98662.45
2023-03-13T20:02:11.963Z,98665.24
2023-03-13T20:05:33.814Z,98661.76
2023-03-13T20:08:57.187Z,98658.94
2023-03-13T20:12:19.261Z,98655.27
2023-03-13T20:15:42.345Z,98655.26
2023-03-13T20:19:04.781Z,98651.59
2023-03-13T20:22:27.626Z,98656.30
2023-03-13T20:25:49.486Z,98647.56
2023-03-13T20:29:11.306Z,98641.46
2023-03-13T20:32:33.367Z,98641.34
2023-03-13T20:36:00.318Z,98635.54
2023-03-13T20:39:24.012Z,98635.86
2023-03-13T20:42:45.952Z,98630.95
2023-03-13T20:46:10.402Z,98631.10
2023-03-13T20:49:32.274Z,98630.23
2023-03-13T20:52:55.588Z,98626.21
2023-03-13T20:56:18.014Z,98622.02
2023-03-13T20:59:41.298Z,98620.26
2023-03-13T21:03:03.015Z,98616.23
2023-03-13T21:06:24.725Z,98610.27
2023-03-13T21:09:46.371Z,98604.67
2023-03-13T21:13:09.478Z,98597.68
2023-03-13T21:16:31.726Z,98601.33
2023-03-13T21:19:53.668Z,98595.03
2023-03-13T21:23:16.286Z,98594.17
2023-03-13T21:26:38.053Z,98593.31
2023-03-13T21:30:00.544Z,98591.40
2023-03-13T21:33:22.444Z,98595.24
2023-03-13T21:36:44.113Z,98592.27
2023-03-13T21:40:06.772Z,98594.76
2023-03-13T21:43:29.202Z,98589.02
2023-03-13T21:46:51.810Z,98578.20
2023-03-13T21:50:13.931Z,98574.70
2023-03-13T21:53:36.315Z,98570.20
2023-03-13T21:56:58.277Z,98567.41
2023-03-13T22:00:20.284Z,98561.66
2023-03-13T22:03:42.723Z,98552.84
2023-03-13T22:07:04.995Z,98553.04
2023-03-13T22:10:26.716Z,98543.48
2023-03-13T22:13:48.418Z,98543.80
2023-03-13T22:17:16.818Z,98544.31
2023-03-13T22:20:38.552Z,98545.48
2023-03-13T22:24:00.239Z,98544.64
2023-03-13T22:27:24.157Z,98552.31
2023-03-13T22:30:46.132Z,98552.83
2023-03-13T22:34:08.534Z,98554.83
2023-03-13T22:37:30.652Z,98554.88
2023-03-13T22:41:04.754Z,98539.15
2023-03-13T22:44:26.627Z,98533.38
2023-03-13T22:47:48.535Z,98533.39
2023-03-13T22:51:12.665Z,98531.28
2023-03-13T22:54:34.473Z,98527.91
2023-03-13T22:57:56.205Z,98525.13
2023-03-13T23:01:19.085Z,98525.30
2023-03-13T23:04:40.773Z,98519.52
2023-03-13T23:08:03.038Z,98516.39
2023-03-13T23:11:24.804Z,98520.05
2023-03-13T23:14:47.155Z,98518.35
2023-03-13T23:18:09.328Z,98509.98
2023-03-13T23:21:31.049Z,98513.17
2023-03-13T23:24:54.072Z,98515.85
2023-03-13T23:28:19.497Z,98511.86
2023-03-13T23:31:41.242Z,98502.77
2023-03-13T23:35:03.557Z,98506.58
2023-03-13T23:38:25.444Z,98503.95
2023-03-13T23:41:47.393Z,98496.80
2023-03-13T23:45:09.415Z,98493.13
2023-03-13T23:48:31.613Z,98489.45
2023-03-13T23:51:53.263Z,98488.61
2023-03-13T23:55:15.808Z,98478.95
2023-03-13T23:58:37.687Z,98474.55
